Stormtrooper — RN370 — position and weather

sailwx.info

Track history (hours):
 
Tides and Currents Weather Stations Pressure Air Temp Water Temp Dewpoint Dewpoint Depression Visibility Wind Speed Wind Dir Waves Ship Positions

Stormtrooper

Last reported at 2017-Oct-17 16:52 UTC. Time now 2017-Nov-17 17:54 UTC.
Position S 39°06' E 146°38'.
Warning: this ship's position is 31 days out of date.

Length 14 m.

Type: Sailing vessel. MMSI: 503051410.

Date/timePositionNaut miles runAvg speedWind from/ knotsBaromVisibWave heightAir tempDewpointWater temp
2017-Oct-17 16:52S 39°06' E 146°38'5 6.0
2017-Oct-17 16:05S 39°05' E 146°44'1 5.9
2017-Oct-17 15:55S 39°05' E 146°45'4 5.9
2017-Oct-17 15:13S 39°04' E 146°50'3 5.6
2017-Oct-17 14:46S 39°04' E 146°54'2 5.7
2017-Oct-17 14:23S 39°04' E 146°56'2 5.8
2017-Oct-17 13:57S 39°03' E 146°59'5 5.7
2017-Oct-17 13:08S 39°03' E 147°05'2 5.9
2017-Oct-17 12:45S 39°02' E 147°08'11 6.4
2017-Oct-17 10:58S 38°58' E 147°22'6 6.9
2017-Oct-17 10:05S 38°55' E 147°29'2 7.0
2017-Oct-17 09:52S 38°55' E 147°31'3 7.0
2017-Oct-17 09:22S 38°53' E 147°35'7 6.9
2017-Oct-17 08:19S 38°51' E 147°44'2 7.0
2017-Oct-17 07:59S 38°50' E 147°46'4 7.3
2017-Oct-17 07:24S 38°48' E 147°51'3 7.5
2017-Oct-17 06:59S 38°47' E 147°55'4 7.5
2017-Oct-17 06:30S 38°46' E 147°60'4 7.6
2017-Oct-17 05:56S 38°44' E 148°05'3 7.0
2017-Oct-17 05:29S 38°43' E 148°08'3 6.9
2017-Oct-17 05:00S 38°42' E 148°12'3 6.4
2017-Oct-17 04:30S 38°40' E 148°16'4 6.7
2017-Oct-17 03:55S 38°38' E 148°20'30 6.2
2017-Oct-16 23:03S 38°21' E 148°52'0 6.2
2017-Oct-16 23:00S 38°21' E 148°52'3 6.5
2017-Oct-16 22:29S 38°19' E 148°56'4 7.1
2017-Oct-16 21:58S 38°17' E 148°59'3 7.1
2017-Oct-16 21:30S 38°15' E 149°03'4 7.4
2017-Oct-16 20:58S 38°12' E 149°07'  
2017-Oct-12 23:00S 33°00' E 151°59'3 6.5
2017-Oct-12 22:30S 32°58' E 152°02'3 6.7
2017-Oct-12 22:01S 32°56' E 152°04'3 6.7
2017-Oct-12 21:30S 32°53' E 152°06'3 6.6
2017-Oct-12 21:00S 32°50' E 152°09'3 6.7
2017-Oct-12 20:30S 32°48' E 152°11'3 6.7
2017-Oct-12 20:00S 32°45' E 152°13'3 6.1
2017-Oct-12 19:31S 32°43' E 152°10'  
2017-Oct-08 04:47S 28°26' E 153°43'2 6.2
2017-Oct-08 04:30S 28°24' E 153°44'3 6.2
2017-Oct-08 04:00S 28°21' E 153°44'3 6.2
2017-Oct-08 03:30S 28°18' E 153°44'3 6.9
2017-Oct-08 03:00S 28°15' E 153°45'3 5.5
2017-Oct-08 02:31S 28°13' E 153°42'4 7.5
2017-Oct-08 02:00S 28°09' E 153°41'4 7.1
2017-Oct-08 01:30S 28°06' E 153°38'3 6.9
2017-Oct-08 01:01S 28°04' E 153°36'3 7.0
2017-Oct-08 00:31S 28°02' E 153°33'4 6.8
2017-Oct-07 23:56S 27°59' E 153°30'3 6.6
2017-Oct-07 23:31S 27°57' E 153°27'2 4.9
2017-Oct-07 23:01S 27°55' E 153°25'2 3.0
2017-Oct-07 22:29S 27°54' E 153°24'1 1.2
2017-Oct-07 22:00S 27°53' E 153°24'1 2.4
2017-Oct-07 21:30S 27°53' E 153°23'2 4.7
2017-Oct-07 21:00S 27°51' E 153°22'  
Track history (hours):
 
Tides and Currents Weather Stations Pressure Air Temp Water Temp Dewpoint Dewpoint Depression Visibility Wind Speed Wind Dir Waves Ship Positions

Stormtrooper

Last reported at 2017-Oct-17 16:52 UTC. Time now 2017-Nov-17 17:54 UTC.
Position S 39°06' E 146°38'.
Warning: this ship's position is 31 days out of date.

Length 14 m.

Type: Sailing vessel. MMSI: 503051410.

Date/timePositionNaut miles runAvg speedWind from/ knotsBaromVisibWave heightAir tempDewpointWater temp
2017-Oct-17 16:52S 39°06' E 146°38'5 6.0
2017-Oct-17 16:05S 39°05' E 146°44'1 5.9
2017-Oct-17 15:55S 39°05' E 146°45'4 5.9
2017-Oct-17 15:13S 39°04' E 146°50'3 5.6
2017-Oct-17 14:46S 39°04' E 146°54'2 5.7
2017-Oct-17 14:23S 39°04' E 146°56'2 5.8
2017-Oct-17 13:57S 39°03' E 146°59'5 5.7
2017-Oct-17 13:08S 39°03' E 147°05'2 5.9
2017-Oct-17 12:45S 39°02' E 147°08'11 6.4
2017-Oct-17 10:58S 38°58' E 147°22'6 6.9
2017-Oct-17 10:05S 38°55' E 147°29'2 7.0
2017-Oct-17 09:52S 38°55' E 147°31'3 7.0
2017-Oct-17 09:22S 38°53' E 147°35'7 6.9
2017-Oct-17 08:19S 38°51' E 147°44'2 7.0
2017-Oct-17 07:59S 38°50' E 147°46'4 7.3
2017-Oct-17 07:24S 38°48' E 147°51'3 7.5
2017-Oct-17 06:59S 38°47' E 147°55'4 7.5
2017-Oct-17 06:30S 38°46' E 147°60'4 7.6
2017-Oct-17 05:56S 38°44' E 148°05'3 7.0
2017-Oct-17 05:29S 38°43' E 148°08'3 6.9
2017-Oct-17 05:00S 38°42' E 148°12'3 6.4
2017-Oct-17 04:30S 38°40' E 148°16'4 6.7
2017-Oct-17 03:55S 38°38' E 148°20'30 6.2
2017-Oct-16 23:03S 38°21' E 148°52'0 6.2
2017-Oct-16 23:00S 38°21' E 148°52'3 6.5
2017-Oct-16 22:29S 38°19' E 148°56'4 7.1
2017-Oct-16 21:58S 38°17' E 148°59'3 7.1
2017-Oct-16 21:30S 38°15' E 149°03'4 7.4
2017-Oct-16 20:58S 38°12' E 149°07'  
2017-Oct-12 23:00S 33°00' E 151°59'3 6.5
2017-Oct-12 22:30S 32°58' E 152°02'3 6.7
2017-Oct-12 22:01S 32°56' E 152°04'3 6.7
2017-Oct-12 21:30S 32°53' E 152°06'3 6.6
2017-Oct-12 21:00S 32°50' E 152°09'3 6.7
2017-Oct-12 20:30S 32°48' E 152°11'3 6.7
2017-Oct-12 20:00S 32°45' E 152°13'3 6.1
2017-Oct-12 19:31S 32°43' E 152°10'  
2017-Oct-08 04:47S 28°26' E 153°43'2 6.2
2017-Oct-08 04:30S 28°24' E 153°44'3 6.2
2017-Oct-08 04:00S 28°21' E 153°44'3 6.2
2017-Oct-08 03:30S 28°18' E 153°44'3 6.9
2017-Oct-08 03:00S 28°15' E 153°45'3 5.5
2017-Oct-08 02:31S 28°13' E 153°42'4 7.5
2017-Oct-08 02:00S 28°09' E 153°41'4 7.1
2017-Oct-08 01:30S 28°06' E 153°38'3 6.9
2017-Oct-08 01:01S 28°04' E 153°36'3 7.0
2017-Oct-08 00:31S 28°02' E 153°33'4 6.8
2017-Oct-07 23:56S 27°59' E 153°30'3 6.6
2017-Oct-07 23:31S 27°57' E 153°27'2 4.9
2017-Oct-07 23:01S 27°55' E 153°25'2 3.0
2017-Oct-07 22:29S 27°54' E 153°24'1 1.2
2017-Oct-07 22:00S 27°53' E 153°24'1 2.4
2017-Oct-07 21:30S 27°53' E 153°23'2 4.7
2017-Oct-07 21:00S 27°51' E 153°22'  

Dump ship's entire track history